createdAt,value
2018-04-14T00:01:34.277Z,10.52
2018-04-14T00:04:05.324Z,10.52
2018-04-14T00:06:36.350Z,10.51
2018-04-14T00:09:07.366Z,10.48
2018-04-14T00:11:38.403Z,10.46
2018-04-14T00:14:09.411Z,10.40
2018-04-14T00:16:40.452Z,10.38
2018-04-14T00:19:11.461Z,10.36
2018-04-14T00:21:42.428Z,10.37
2018-04-14T00:24:13.505Z,10.38
2018-04-14T00:26:44.546Z,10.36
2018-04-14T00:29:15.577Z,10.34
2018-04-14T00:31:53.591Z,10.33
2018-04-14T00:34:24.600Z,10.29
2018-04-14T00:36:55.586Z,10.28
2018-04-14T00:39:26.553Z,10.29
2018-04-14T00:41:57.572Z,10.26
2018-04-14T00:44:28.530Z,10.25
2018-04-14T00:46:59.554Z,10.27
2018-04-14T00:49:30.560Z,10.24
2018-04-14T00:52:01.551Z,10.19
2018-04-14T00:54:32.584Z,10.16
2018-04-14T00:57:03.595Z,10.12
2018-04-14T00:59:34.626Z,10.10
2018-04-14T01:02:05.662Z,10.05
2018-04-14T01:04:36.703Z,10.00
2018-04-14T01:07:07.648Z,9.91
2018-04-14T01:09:38.650Z,9.87
2018-04-14T01:12:09.658Z,9.85
2018-04-14T01:14:40.696Z,9.85
2018-04-14T01:17:11.711Z,9.79
2018-04-14T01:19:42.764Z,9.74
2018-04-14T01:22:13.857Z,9.73
2018-04-14T01:24:44.891Z,9.71
2018-04-14T01:27:15.915Z,9.69
2018-04-14T01:29:46.916Z,9.68
2018-04-14T01:32:17.952Z,9.68
2018-04-14T01:34:48.953Z,9.67
2018-04-14T01:37:19.999Z,9.65
2018-04-14T01:39:50.969Z,9.65
2018-04-14T01:42:22.011Z,9.64
2018-04-14T01:44:53.057Z,9.59
2018-04-14T01:47:24.067Z,9.56
2018-04-14T01:49:55.135Z,9.55
2018-04-14T01:52:26.070Z,9.54
2018-04-14T01:54:57.059Z,9.51
2018-04-14T01:57:28.095Z,9.49
2018-04-14T01:59:59.167Z,9.50
2018-04-14T02:02:30.166Z,9.48
2018-04-14T02:05:01.138Z,9.48
2018-04-14T02:07:32.132Z,9.48
2018-04-14T02:10:03.198Z,9.48
2018-04-14T02:12:34.185Z,9.48
2018-04-14T02:15:05.201Z,9.48
2018-04-14T02:17:36.239Z,9.46
2018-04-14T02:20:07.241Z,9.45
2018-04-14T02:22:38.257Z,9.42
2018-04-14T02:25:09.222Z,9.38
2018-04-14T02:27:40.243Z,9.36
2018-04-14T02:30:11.275Z,9.34
2018-04-14T02:32:42.336Z,9.32
2018-04-14T02:35:13.390Z,9.32
2018-04-14T02:37:44.398Z,9.31
2018-04-14T02:40:15.395Z,9.29
2018-04-14T02:42:46.387Z,9.29
2018-04-14T02:45:17.365Z,9.28
2018-04-14T02:47:48.386Z,9.24
2018-04-14T02:50:19.394Z,9.20
2018-04-14T02:52:50.401Z,9.17
2018-04-14T02:55:21.420Z,9.14
2018-04-14T02:57:52.447Z,9.14
2018-04-14T03:00:23.487Z,9.14
2018-04-14T03:03:09.416Z,9.12
2018-04-14T03:05:40.450Z,9.06
2018-04-14T03:08:11.486Z,9.02
2018-04-14T03:10:42.464Z,9.02
2018-04-14T03:13:13.478Z,8.98
2018-04-14T03:15:44.490Z,8.97
2018-04-14T03:18:15.529Z,8.97
2018-04-14T03:20:46.531Z,8.98
2018-04-14T03:23:17.532Z,8.95
2018-04-14T03:25:48.589Z,8.93
2018-04-14T03:28:19.582Z,8.90
2018-04-14T03:30:50.581Z,8.88
2018-04-14T03:33:21.586Z,8.87
2018-04-14T03:35:52.600Z,8.84
2018-04-14T03:38:23.550Z,8.82
2018-04-14T03:40:54.512Z,8.83
2018-04-14T03:43:25.511Z,8.83
2018-04-14T03:45:56.518Z,8.80
2018-04-14T03:48:27.495Z,8.72
2018-04-14T03:50:58.506Z,8.70
2018-04-14T03:53:36.514Z,8.67
2018-04-14T03:56:07.537Z,8.67
2018-04-14T03:58:38.514Z,8.68
2018-04-14T04:01:09.496Z,8.67
2018-04-14T04:03:40.520Z,8.69
2018-04-14T04:06:11.507Z,8.70
2018-04-14T04:08:42.552Z,8.71
2018-04-14T04:11:13.589Z,8.69
2018-04-14T04:13:44.631Z,8.66
2018-04-14T04:16:15.597Z,8.67
2018-04-14T04:18:58.722Z,8.66
2018-04-14T04:21:42.150Z,8.59
2018-04-14T04:24:25.594Z,8.59
2018-04-14T04:26:56.596Z,8.60
2018-04-14T04:29:27.564Z,8.62
2018-04-14T04:31:58.640Z,8.67
2018-04-14T04:34:29.673Z,8.73
2018-04-14T04:37:00.681Z,8.76
2018-04-14T04:39:31.667Z,8.80
2018-04-14T04:42:02.690Z,8.82
2018-04-14T04:44:33.716Z,8.86
2018-04-14T04:47:04.760Z,8.91
2018-04-14T04:49:35.730Z,8.98
2018-04-14T04:52:06.776Z,9.02
2018-04-14T04:54:37.800Z,9.08
2018-04-14T04:57:08.807Z,9.12
2018-04-14T04:59:39.832Z,9.19
2018-04-14T05:02:10.862Z,9.28
2018-04-14T05:04:41.901Z,9.35
2018-04-14T05:07:12.921Z,9.40
2018-04-14T05:09:43.966Z,9.51
2018-04-14T05:12:15.890Z,9.62
2018-04-14T05:14:47.101Z,9.75
2018-04-14T05:17:20.010Z,9.92
2018-04-14T05:19:51.090Z,10.04
2018-04-14T05:22:22.126Z,10.14
2018-04-14T05:24:53.102Z,10.14
2018-04-14T05:27:24.116Z,10.27
2018-04-14T05:29:55.176Z,10.41
2018-04-14T05:32:26.248Z,10.42
2018-04-14T05:34:57.223Z,10.53
2018-04-14T05:37:28.252Z,10.67
2018-04-14T05:39:59.198Z,10.77
2018-04-14T05:42:30.181Z,10.86
2018-04-14T05:45:01.218Z,11.01
2018-04-14T05:47:32.201Z,11.16
2018-04-14T05:50:03.223Z,11.29
2018-04-14T05:52:34.210Z,11.47
2018-04-14T05:55:12.211Z,11.63
2018-04-14T05:57:43.185Z,11.67
2018-04-14T06:00:14.249Z,11.73
2018-04-14T06:02:45.282Z,11.88
2018-04-14T06:05:16.320Z,12.04
2018-04-14T06:07:47.342Z,12.22
2018-04-14T06:10:18.329Z,12.43
2018-04-14T06:12:49.287Z,12.63
2018-04-14T06:15:20.289Z,12.81
2018-04-14T06:17:51.266Z,12.95
2018-04-14T06:20:22.252Z,12.97
2018-04-14T06:22:53.316Z,12.94
2018-04-14T06:25:24.358Z,12.78
2018-04-14T06:27:55.372Z,12.68
2018-04-14T06:30:26.411Z,12.80
2018-04-14T06:32:57.432Z,13.02
2018-04-14T06:35:28.431Z,13.30
2018-04-14T06:37:59.420Z,13.50
2018-04-14T06:40:37.307Z,13.78
2018-04-14T06:43:08.306Z,14.01
2018-04-14T06:45:39.293Z,14.39
2018-04-14T06:48:10.276Z,14.86
2018-04-14T06:50:41.284Z,19.96
2018-04-14T06:53:12.223Z,26.04
2018-04-14T06:55:43.258Z,30.50
2018-04-14T06:58:14.308Z,34.00
2018-04-14T07:00:45.309Z,35.83
2018-04-14T07:03:16.333Z,37.51
2018-04-14T07:05:47.327Z,39.28
2018-04-14T07:08:18.366Z,40.58
2018-04-14T07:10:49.372Z,41.52
2018-04-14T07:13:20.404Z,42.65
2018-04-14T07:15:51.423Z,43.18
2018-04-14T07:18:22.473Z,43.76
2018-04-14T07:20:53.489Z,44.28
2018-04-14T07:23:24.535Z,44.48
2018-04-14T07:25:55.559Z,45.51
2018-04-14T07:28:26.666Z,45.83
2018-04-14T07:30:57.728Z,46.21
2018-04-14T07:33:28.744Z,46.48
2018-04-14T07:35:59.706Z,47.33
2018-04-14T07:38:30.757Z,47.21
2018-04-14T07:41:01.867Z,47.52
2018-04-14T07:43:32.854Z,48.21
2018-04-14T07:46:03.886Z,48.37
2018-04-14T07:48:34.924Z,48.14
2018-04-14T07:51:05.951Z,48.72
2018-04-14T07:53:36.924Z,48.25
2018-04-14T07:56:08.039Z,48.45
2018-04-14T07:58:39.107Z,48.58
2018-04-14T08:01:10.131Z,49.32
2018-04-14T08:03:41.292Z,49.16
2018-04-14T08:06:12.455Z,49.44
2018-04-14T08:08:43.495Z,49.42
2018-04-14T08:11:14.516Z,49.66
2018-04-14T08:13:45.634Z,49.64
2018-04-14T08:16:16.620Z,50.41
2018-04-14T08:18:47.726Z,50.64
2018-04-14T08:21:18.729Z,49.58
2018-04-14T08:23:49.877Z,49.31
2018-04-14T08:26:20.906Z,49.89
2018-04-14T08:28:51.980Z,49.87
2018-04-14T08:31:23.021Z,50.78
2018-04-14T08:33:54.054Z,50.45
2018-04-14T08:36:25.128Z,49.89
2018-04-14T08:38:56.157Z,49.51
2018-04-14T08:41:27.211Z,49.50
2018-04-14T08:43:58.223Z,48.27
2018-04-14T08:46:29.230Z,48.29
2018-04-14T08:49:00.276Z,47.85
2018-04-14T08:51:31.319Z,48.23
2018-04-14T08:54:03.198Z,48.95
2018-04-14T08:56:34.185Z,48.96
2018-04-14T08:59:05.183Z,49.16
2018-04-14T09:01:36.190Z,49.15
2018-04-14T09:04:07.310Z,48.17
2018-04-14T09:06:38.374Z,48.63
2018-04-14T09:09:09.388Z,49.11
2018-04-14T09:11:40.428Z,48.77
2018-04-14T09:14:11.441Z,48.58
2018-04-14T09:16:42.475Z,47.49
2018-04-14T09:19:13.526Z,48.14
2018-04-14T09:21:44.543Z,48.47
2018-04-14T09:24:15.594Z,48.92
2018-04-14T09:26:46.609Z,49.40
2018-04-14T09:29:17.670Z,49.48
2018-04-14T09:31:48.692Z,49.02
2018-04-14T09:34:19.679Z,48.66
2018-04-14T09:36:50.666Z,48.71
2018-04-14T09:39:21.669Z,49.11
2018-04-14T09:41:52.679Z,49.16
2018-04-14T09:44:23.678Z,48.59
2018-04-14T09:46:54.652Z,48.43
2018-04-14T09:49:25.655Z,48.37
2018-04-14T09:51:56.698Z,48.41
2018-04-14T09:54:27.711Z,48.43
2018-04-14T09:56:58.727Z,48.45
2018-04-14T09:59:30.040Z,48.78
2018-04-14T10:02:01.073Z,48.95
2018-04-14T10:04:33.131Z,48.72
2018-04-14T10:07:04.154Z,47.65
2018-04-14T10:09:35.167Z,46.68
2018-04-14T10:12:06.203Z,47.01
2018-04-14T10:14:37.224Z,47.23
2018-04-14T10:17:08.265Z,47.31
2018-04-14T10:19:39.351Z,47.08
2018-04-14T10:22:10.409Z,46.92
2018-04-14T10:24:41.432Z,46.87
2018-04-14T10:27:12.472Z,45.74
2018-04-14T10:29:43.541Z,45.49
2018-04-14T10:32:14.552Z,45.12
2018-04-14T10:34:45.555Z,45.02
2018-04-14T10:37:23.629Z,45.11
2018-04-14T10:39:54.665Z,45.56
2018-04-14T10:42:25.751Z,45.84
2018-04-14T10:44:56.822Z,45.95
2018-04-14T10:47:27.826Z,45.72
2018-04-14T10:49:58.866Z,45.85
2018-04-14T10:52:31.315Z,45.51
2018-04-14T10:55:04.406Z,44.17
2018-04-14T10:57:35.585Z,43.73
2018-04-14T11:00:06.699Z,43.10
2018-04-14T11:02:37.849Z,41.73
2018-04-14T11:05:08.874Z,40.06
2018-04-14T11:07:39.911Z,37.92
2018-04-14T11:10:10.881Z,36.15
2018-04-14T11:12:41.884Z,34.46
2018-04-14T11:15:12.941Z,33.16
2018-04-14T11:17:43.926Z,31.94
2018-04-14T11:20:15.958Z,31.06
2018-04-14T11:22:46.967Z,30.26
2018-04-14T11:25:18.008Z,29.48
2018-04-14T11:27:49.026Z,28.32
2018-04-14T11:30:20.043Z,27.95
2018-04-14T11:32:51.072Z,27.97
2018-04-14T11:35:22.085Z,27.27
2018-04-14T11:37:53.090Z,27.07
2018-04-14T11:40:24.086Z,26.95
2018-04-14T11:42:55.093Z,27.13
2018-04-14T11:45:26.135Z,27.19
2018-04-14T11:47:57.184Z,26.78
2018-04-14T11:50:28.206Z,27.00
2018-04-14T11:52:59.251Z,27.32
2018-04-14T11:55:30.312Z,27.15
2018-04-14T11:58:01.306Z,26.67
2018-04-14T12:00:32.358Z,26.53
2018-04-14T12:03:03.373Z,26.07
2018-04-14T12:05:34.375Z,25.96
2018-04-14T12:08:05.408Z,26.28
2018-04-14T12:10:36.408Z,25.87
2018-04-14T12:13:07.486Z,25.52
2018-04-14T12:15:45.448Z,25.80
2018-04-14T12:18:16.513Z,26.01
2018-04-14T12:20:47.499Z,26.49
2018-04-14T12:23:18.554Z,27.11
2018-04-14T12:25:49.614Z,27.32
2018-04-14T12:28:20.638Z,27.29
2018-04-14T12:30:51.620Z,27.64
2018-04-14T12:33:22.680Z,27.69
2018-04-14T12:35:53.676Z,27.87
2018-04-14T12:38:24.756Z,27.82
2018-04-14T12:40:55.832Z,28.16
2018-04-14T12:43:26.822Z,28.37
2018-04-14T12:45:57.846Z,28.43
2018-04-14T12:48:28.842Z,27.88
2018-04-14T12:50:59.892Z,28.05
2018-04-14T12:53:30.851Z,28.01
2018-04-14T12:56:01.893Z,28.14
2018-04-14T12:58:32.905Z,28.32
2018-04-14T13:01:03.903Z,28.87
2018-04-14T13:03:34.894Z,29.39
2018-04-14T13:06:05.954Z,29.65
2018-04-14T13:08:36.912Z,29.36
2018-04-14T13:11:07.906Z,29.56
2018-04-14T13:13:38.917Z,29.95
2018-04-14T13:16:09.981Z,30.01
2018-04-14T13:18:41.026Z,29.76
2018-04-14T13:21:12.038Z,29.67
2018-04-14T13:23:42.998Z,29.55
2018-04-14T13:26:14.011Z,29.27
2018-04-14T13:28:45.025Z,28.68
2018-04-14T13:31:16.007Z,28.53
2018-04-14T13:33:47.005Z,28.60
2018-04-14T13:36:18.056Z,28.89
2018-04-14T13:38:49.051Z,28.81
2018-04-14T13:41:20.177Z,28.72
2018-04-14T13:43:51.264Z,28.71
2018-04-14T13:46:22.318Z,28.64
2018-04-14T13:48:53.366Z,29.09
2018-04-14T13:51:24.380Z,29.48
2018-04-14T13:53:55.411Z,29.17
2018-04-14T13:56:26.427Z,28.88
2018-04-14T13:58:57.471Z,28.48
2018-04-14T14:01:28.437Z,28.48
2018-04-14T14:03:59.450Z,28.17
2018-04-14T14:06:30.496Z,28.29
2018-04-14T14:09:01.452Z,28.77
2018-04-14T14:11:32.448Z,29.07
2018-04-14T14:14:03.445Z,29.36
2018-04-14T14:16:34.451Z,29.54
2018-04-14T14:19:05.486Z,28.93
2018-04-14T14:21:36.528Z,28.52
2018-04-14T14:24:07.562Z,28.50
2018-04-14T14:26:38.555Z,28.75
2018-04-14T14:29:09.578Z,28.81
2018-04-14T14:31:40.654Z,28.83
2018-04-14T14:34:11.632Z,28.94
2018-04-14T14:36:42.682Z,28.58
2018-04-14T14:39:13.689Z,27.90
2018-04-14T14:41:44.725Z,27.51
2018-04-14T14:44:15.771Z,27.63
2018-04-14T14:46:46.738Z,27.70
2018-04-14T14:49:17.784Z,27.39
2018-04-14T14:51:48.791Z,27.19
2018-04-14T14:54:19.826Z,27.12
2018-04-14T14:56:50.808Z,27.00
2018-04-14T14:59:21.793Z,26.92
2018-04-14T15:01:52.884Z,27.05
2018-04-14T15:04:23.885Z,27.03
2018-04-14T15:06:54.909Z,27.25
2018-04-14T15:09:25.934Z,27.27
2018-04-14T15:11:56.945Z,26.85
2018-04-14T15:14:27.988Z,26.89
2018-04-14T15:16:58.984Z,26.89
2018-04-14T15:19:30.001Z,27.02
2018-04-14T15:22:01.048Z,26.85
2018-04-14T15:24:32.060Z,26.68
2018-04-14T15:27:03.073Z,26.51
2018-04-14T15:29:34.051Z,26.39
2018-04-14T15:32:05.064Z,26.00
2018-04-14T15:34:36.072Z,25.30
2018-04-14T15:37:07.092Z,25.20
2018-04-14T15:39:38.068Z,25.37
2018-04-14T15:42:09.062Z,25.62
2018-04-14T15:44:40.065Z,25.78
2018-04-14T15:47:11.030Z,25.74
2018-04-14T15:49:42.051Z,25.79
2018-04-14T15:52:13.083Z,25.82
2018-04-14T15:54:44.082Z,25.79
2018-04-14T15:57:15.075Z,25.70
2018-04-14T15:59:46.065Z,25.55
2018-04-14T16:02:17.142Z,25.43
2018-04-14T16:04:48.140Z,25.11
2018-04-14T16:07:19.150Z,24.94
2018-04-14T16:09:50.186Z,24.73
2018-04-14T16:12:21.238Z,24.47
2018-04-14T16:14:52.283Z,24.37
2018-04-14T16:17:23.328Z,24.20
2018-04-14T16:19:54.362Z,23.88
2018-04-14T16:22:25.670Z,23.57
2018-04-14T16:24:56.679Z,23.50
2018-04-14T16:27:27.725Z,23.50
2018-04-14T16:29:58.768Z,23.36
2018-04-14T16:32:29.919Z,23.33
2018-04-14T16:35:00.956Z,23.19
2018-04-14T16:37:32.039Z,23.00
2018-04-14T16:40:03.067Z,22.78
2018-04-14T16:42:34.126Z,22.76
2018-04-14T16:45:05.182Z,22.71
2018-04-14T16:47:36.235Z,22.76
2018-04-14T16:50:07.278Z,22.60
2018-04-14T16:52:38.265Z,22.49
2018-04-14T16:55:09.310Z,22.45
2018-04-14T16:57:40.365Z,22.49
2018-04-14T17:00:11.395Z,22.44
2018-04-14T17:02:42.386Z,22.43
2018-04-14T17:05:13.431Z,22.35
2018-04-14T17:07:44.441Z,22.31
2018-04-14T17:10:15.493Z,22.19
2018-04-14T17:12:46.515Z,22.08
2018-04-14T17:15:17.501Z,22.03
2018-04-14T17:17:48.507Z,21.88
2018-04-14T17:20:19.515Z,21.75
2018-04-14T17:22:50.552Z,21.59
2018-04-14T17:25:21.593Z,21.45
2018-04-14T17:27:52.598Z,21.36
2018-04-14T17:30:23.600Z,21.33
2018-04-14T17:32:54.657Z,21.25
2018-04-14T17:35:25.715Z,21.27
2018-04-14T17:37:56.706Z,21.22
2018-04-14T17:40:27.764Z,21.13
2018-04-14T17:42:58.791Z,20.98
2018-04-14T17:45:29.859Z,20.87
2018-04-14T17:48:00.855Z,20.75
2018-04-14T17:50:31.796Z,20.61
2018-04-14T17:53:02.826Z,20.55
2018-04-14T17:55:33.794Z,20.44
2018-04-14T17:58:04.844Z,20.36
2018-04-14T18:00:35.879Z,20.26
2018-04-14T18:03:06.933Z,20.21
2018-04-14T18:05:37.953Z,20.12
2018-04-14T18:08:09.041Z,20.03
2018-04-14T18:10:40.054Z,19.95
2018-04-14T18:13:11.063Z,19.89
2018-04-14T18:15:42.056Z,19.79
2018-04-14T18:18:13.076Z,19.70
2018-04-14T18:20:44.111Z,19.63
2018-04-14T18:23:15.124Z,19.58
2018-04-14T18:25:46.132Z,19.54
2018-04-14T18:28:17.138Z,19.48
2018-04-14T18:30:48.147Z,19.43
2018-04-14T18:33:19.126Z,19.40
2018-04-14T18:35:50.145Z,19.32
2018-04-14T18:38:21.155Z,19.32
2018-04-14T18:40:52.179Z,19.26
2018-04-14T18:43:23.206Z,19.22
2018-04-14T18:45:54.186Z,19.14
2018-04-14T18:48:25.217Z,19.17
2018-04-14T18:50:56.288Z,19.13
2018-04-14T18:53:27.303Z,19.07
2018-04-14T18:55:58.321Z,19.04
2018-04-14T18:58:29.546Z,18.99
2018-04-14T19:01:00.556Z,18.95
2018-04-14T19:03:31.576Z,18.92
2018-04-14T19:06:02.588Z,18.92
2018-04-14T19:08:33.541Z,18.88
2018-04-14T19:11:04.566Z,18.85
2018-04-14T19:13:35.569Z,18.81
2018-04-14T19:16:06.676Z,18.70
2018-04-14T19:18:37.661Z,18.63
2018-04-14T19:21:08.690Z,18.57
2018-04-14T19:23:39.734Z,18.47
2018-04-14T19:26:10.795Z,18.37
2018-04-14T19:28:41.777Z,18.28
2018-04-14T19:31:12.790Z,18.25
2018-04-14T19:33:43.804Z,18.24
2018-04-14T19:36:14.764Z,18.21
2018-04-14T19:38:45.772Z,18.18
2018-04-14T19:41:16.741Z,18.12
2018-04-14T19:43:47.752Z,18.08
2018-04-14T19:46:18.752Z,18.02
2018-04-14T19:48:49.761Z,18.00
2018-04-14T19:51:20.865Z,17.91
2018-04-14T19:53:51.871Z,17.86
2018-04-14T19:56:22.913Z,17.80
2018-04-14T19:58:53.970Z,17.77
2018-04-14T20:01:24.973Z,17.72
2018-04-14T20:04:02.904Z,17.69
2018-04-14T20:06:33.960Z,17.63
2018-04-14T20:09:04.990Z,17.58
2018-04-14T20:11:35.985Z,17.58
2018-04-14T20:14:07.010Z,17.54
2018-04-14T20:16:38.062Z,17.44
2018-04-14T20:19:09.087Z,17.40
2018-04-14T20:21:40.120Z,17.34
2018-04-14T20:24:11.122Z,17.28
2018-04-14T20:26:42.157Z,17.28
2018-04-14T20:29:13.133Z,17.23
2018-04-14T20:31:44.094Z,17.18
2018-04-14T20:34:15.056Z,17.14
2018-04-14T20:36:46.062Z,17.04
2018-04-14T20:39:17.062Z,17.07
2018-04-14T20:41:48.066Z,17.04
2018-04-14T20:44:19.072Z,16.99
2018-04-14T20:46:50.081Z,16.97
2018-04-14T20:49:21.066Z,16.94
2018-04-14T20:51:52.107Z,16.96
2018-04-14T20:54:23.120Z,16.95
2018-04-14T20:56:54.140Z,16.94
2018-04-14T20:59:25.140Z,16.93
2018-04-14T21:01:56.148Z,16.91
2018-04-14T21:04:27.179Z,16.86
2018-04-14T21:06:58.171Z,16.83
2018-04-14T21:09:29.146Z,16.81
2018-04-14T21:12:00.182Z,16.79
2018-04-14T21:14:31.160Z,16.78
2018-04-14T21:17:05.034Z,16.71
2018-04-14T21:19:36.048Z,16.65
2018-04-14T21:22:07.111Z,16.60
2018-04-14T21:24:38.082Z,16.56
2018-04-14T21:27:09.134Z,16.53
2018-04-14T21:29:40.104Z,16.48
2018-04-14T21:32:11.073Z,16.44
2018-04-14T21:34:42.068Z,16.42
2018-04-14T21:37:13.072Z,16.42
2018-04-14T21:39:44.098Z,16.42
2018-04-14T21:42:15.095Z,16.40
2018-04-14T21:44:46.707Z,16.39
2018-04-14T21:47:17.724Z,16.39
2018-04-14T21:49:48.731Z,16.39
2018-04-14T21:52:19.709Z,16.35
2018-04-14T21:54:50.682Z,16.32
2018-04-14T21:57:21.682Z,16.27
2018-04-14T21:59:52.689Z,16.20
2018-04-14T22:02:23.690Z,16.19
2018-04-14T22:04:54.694Z,16.16
2018-04-14T22:07:25.675Z,16.16
2018-04-14T22:09:56.651Z,16.15
2018-04-14T22:12:27.655Z,16.18
2018-04-14T22:14:58.698Z,16.19
2018-04-14T22:17:29.671Z,16.16
2018-04-14T22:20:00.715Z,16.12
2018-04-14T22:22:32.240Z,16.12
2018-04-14T22:25:03.267Z,16.09
2018-04-14T22:27:34.261Z,16.07
2018-04-14T22:30:05.323Z,16.01
2018-04-14T22:32:36.282Z,15.92
2018-04-14T22:35:07.318Z,15.84
2018-04-14T22:37:38.329Z,15.84
2018-04-14T22:40:09.340Z,15.83
2018-04-14T22:42:40.360Z,15.79
2018-04-14T22:45:11.392Z,15.78
2018-04-14T22:47:42.427Z,15.71
2018-04-14T22:50:13.387Z,15.64
2018-04-14T22:52:44.473Z,15.58
2018-04-14T22:55:15.494Z,15.56
2018-04-14T22:57:46.467Z,15.54
2018-04-14T23:00:17.442Z,15.55
2018-04-14T23:02:48.490Z,15.58
2018-04-14T23:05:19.515Z,15.60
2018-04-14T23:07:50.551Z,15.62
2018-04-14T23:10:21.562Z,15.60
2018-04-14T23:12:52.527Z,15.60
2018-04-14T23:15:23.488Z,15.62
2018-04-14T23:17:54.477Z,15.61
2018-04-14T23:20:25.516Z,15.60
2018-04-14T23:22:56.543Z,15.59
2018-04-14T23:25:27.580Z,15.57
2018-04-14T23:27:58.586Z,15.49
2018-04-14T23:30:29.601Z,15.45
2018-04-14T23:33:00.692Z,15.39
2018-04-14T23:35:31.719Z,15.32
2018-04-14T23:38:02.733Z,15.27
2018-04-14T23:40:33.782Z,15.28
2018-04-14T23:43:04.819Z,15.27
2018-04-14T23:45:35.795Z,15.23
2018-04-14T23:48:06.835Z,15.21
2018-04-14T23:50:37.863Z,15.22
2018-04-14T23:53:08.836Z,15.18
2018-04-14T23:55:39.820Z,15.17
2018-04-14T23:58:10.827Z,15.14
